createdAt,value
2023-03-14T00:00:56.990Z,1.10
2023-03-14T00:03:23.541Z,0.50
2023-03-14T00:05:50.081Z,1.00
2023-03-14T00:08:16.645Z,0.97
2023-03-14T00:10:43.026Z,1.53
2023-03-14T00:13:09.993Z,0.77
2023-03-14T00:15:36.696Z,1.50
2023-03-14T00:18:04.017Z,0.80
2023-03-14T00:20:30.484Z,0.70
2023-03-14T00:22:59.574Z,1.23
2023-03-14T00:25:26.018Z,1.13
2023-03-14T00:27:52.494Z,0.90
2023-03-14T00:30:19.241Z,0.77
2023-03-14T00:32:46.655Z,0.70
2023-03-14T00:35:13.867Z,0.70
2023-03-14T00:37:40.375Z,0.70
2023-03-14T00:40:09.647Z,0.70
2023-03-14T00:42:36.269Z,0.40
2023-03-14T00:45:04.086Z,1.27
2023-03-14T00:47:30.483Z,0.63
2023-03-14T00:49:57.422Z,0.77
2023-03-14T00:52:24.603Z,0.87
2023-03-14T00:54:51.005Z,0.60
2023-03-14T00:57:17.432Z,0.57
2023-03-14T00:59:43.832Z,1.40
2023-03-14T01:02:10.869Z,0.60
2023-03-14T01:04:38.066Z,0.60
2023-03-14T01:07:04.595Z,0.63
2023-03-14T01:09:32.754Z,0.53
2023-03-14T01:11:59.387Z,0.57
2023-03-14T01:14:25.851Z,0.60
2023-03-14T01:16:52.315Z,1.63
2023-03-14T01:19:20.079Z,1.23
2023-03-14T01:21:46.658Z,0.93
2023-03-14T01:24:13.252Z,0.67
2023-03-14T01:26:40.875Z,2.87
2023-03-14T01:29:08.798Z,1.87
2023-03-14T01:31:38.203Z,0.93
2023-03-14T01:34:04.899Z,0.90
2023-03-14T01:36:31.943Z,0.70
2023-03-14T01:39:00.919Z,2.77
2023-03-14T01:41:28.250Z,2.57
2023-03-14T01:44:00.912Z,1.43
2023-03-14T01:46:36.618Z,1.37
2023-03-14T01:49:17.654Z,1.10
2023-03-14T01:51:53.859Z,1.60
2023-03-14T01:54:25.659Z,1.47
2023-03-14T01:56:56.768Z,2.50
2023-03-14T01:59:26.432Z,0.67
2023-03-14T02:01:56.297Z,1.50
2023-03-14T02:04:24.238Z,0.70
2023-03-14T02:06:56.849Z,0.80
2023-03-14T02:09:27.288Z,1.60
2023-03-14T02:11:54.099Z,0.80
2023-03-14T02:14:48.227Z,1.10
2023-03-14T02:17:24.658Z,1.40
2023-03-14T02:20:28.793Z,0.83
2023-03-14T02:22:57.801Z,0.77
2023-03-14T02:25:39.949Z,0.90
2023-03-14T02:28:07.232Z,0.63
2023-03-14T02:30:35.807Z,0.70
2023-03-14T02:33:06.140Z,0.93
2023-03-14T02:35:36.208Z,1.17
2023-03-14T02:38:13.822Z,1.33
2023-03-14T02:40:42.612Z,1.70
2023-03-14T02:43:10.000Z,1.13
2023-03-14T02:45:42.522Z,0.83
2023-03-14T02:48:14.931Z,0.70
2023-03-14T02:50:42.716Z,1.63
2023-03-14T02:53:12.073Z,0.70
2023-03-14T02:55:38.958Z,0.60
2023-03-14T02:58:11.764Z,1.40
2023-03-14T03:00:38.543Z,0.67
2023-03-14T03:03:08.039Z,0.90
2023-03-14T03:05:35.090Z,0.80
2023-03-14T03:08:03.239Z,0.70
2023-03-14T03:10:31.289Z,0.50
2023-03-14T03:12:58.082Z,0.73
2023-03-14T03:15:28.053Z,0.60
2023-03-14T03:17:54.726Z,0.60
2023-03-14T03:20:21.239Z,1.03
2023-03-14T03:22:47.694Z,0.70
2023-03-14T03:25:14.203Z,0.93
2023-03-14T03:27:40.650Z,0.70
2023-03-14T03:30:09.060Z,1.03
2023-03-14T03:32:36.883Z,0.60
2023-03-14T03:35:04.609Z,0.40
2023-03-14T03:37:34.966Z,0.53
2023-03-14T03:40:05.298Z,0.70
2023-03-14T03:42:31.924Z,0.60
2023-03-14T03:44:58.617Z,0.60
2023-03-14T03:47:25.594Z,0.70
2023-03-14T03:49:53.028Z,0.77
2023-03-14T03:52:21.206Z,0.50
2023-03-14T03:54:47.831Z,0.50
2023-03-14T03:57:14.581Z,0.50
2023-03-14T03:59:41.449Z,0.50
2023-03-14T04:02:08.658Z,0.60
2023-03-14T04:04:35.699Z,0.50
2023-03-14T04:07:04.943Z,0.43
2023-03-14T04:09:31.670Z,1.07
2023-03-14T04:12:11.308Z,0.40
2023-03-14T04:14:54.305Z,0.57
2023-03-14T04:17:22.816Z,0.60
2023-03-14T04:19:51.604Z,0.50
2023-03-14T04:22:20.982Z,0.50
2023-03-14T04:24:50.560Z,2.00
2023-03-14T04:27:18.785Z,0.47
2023-03-14T04:29:46.470Z,0.50
2023-03-14T04:32:18.973Z,0.50
2023-03-14T04:34:45.645Z,0.60
2023-03-14T04:37:12.345Z,0.40
2023-03-14T04:39:42.701Z,0.50
2023-03-14T04:42:18.889Z,0.60
2023-03-14T04:44:47.131Z,1.63
2023-03-14T04:47:15.046Z,0.50
2023-03-14T04:49:42.065Z,0.40
2023-03-14T04:52:11.037Z,1.23
2023-03-14T04:54:38.301Z,0.60
2023-03-14T04:57:05.825Z,0.50
2023-03-14T04:59:35.047Z,0.43
2023-03-14T05:02:19.949Z,0.77
2023-03-14T05:05:03.991Z,0.47
2023-03-14T05:07:54.916Z,0.43
2023-03-14T05:10:42.593Z,0.53
2023-03-14T05:13:27.425Z,0.67
2023-03-14T05:16:12.590Z,1.70
2023-03-14T05:18:58.006Z,1.20
2023-03-14T05:21:56.787Z,1.40
2023-03-14T05:24:49.600Z,1.57
2023-03-14T05:27:32.097Z,5.07
2023-03-14T05:30:18.956Z,0.97
2023-03-14T05:33:03.929Z,1.20
2023-03-14T05:35:44.338Z,1.23
2023-03-14T05:38:34.115Z,0.50
2023-03-14T05:41:16.194Z,0.50
2023-03-14T05:44:05.583Z,0.87
2023-03-14T05:46:52.883Z,0.67
2023-03-14T05:49:41.925Z,0.63
2023-03-14T05:52:18.371Z,0.80
2023-03-14T05:55:13.994Z,0.50
2023-03-14T05:57:40.600Z,0.53
2023-03-14T06:00:37.853Z,0.50
2023-03-14T06:03:19.868Z,1.47
2023-03-14T06:05:51.021Z,0.47
2023-03-14T06:08:18.449Z,0.50
2023-03-14T06:10:46.281Z,0.50
2023-03-14T06:13:13.266Z,0.50
2023-03-14T06:15:39.884Z,2.10
2023-03-14T06:18:06.427Z,1.70
2023-03-14T06:20:36.700Z,0.67
2023-03-14T06:23:03.222Z,0.50
2023-03-14T06:25:30.837Z,0.47
2023-03-14T06:27:57.482Z,0.70
2023-03-14T06:30:24.032Z,0.60
2023-03-14T06:32:50.981Z,0.63
2023-03-14T06:35:19.348Z,0.97
2023-03-14T06:37:49.097Z,0.50
2023-03-14T06:40:18.079Z,2.10
2023-03-14T06:42:52.960Z,0.40
2023-03-14T06:45:21.366Z,0.70
2023-03-14T06:47:48.293Z,0.97
2023-03-14T06:50:16.013Z,1.90
2023-03-14T06:52:48.050Z,2.27
2023-03-14T06:55:19.208Z,1.20
2023-03-14T06:57:47.466Z,0.70
2023-03-14T07:00:15.149Z,0.67
2023-03-14T07:02:43.332Z,1.70
2023-03-14T07:05:21.513Z,0.63
2023-03-14T07:07:47.912Z,0.60
2023-03-14T07:10:14.862Z,0.70
2023-03-14T07:12:42.057Z,0.50
2023-03-14T07:15:18.124Z,0.70
2023-03-14T07:17:48.215Z,0.43
2023-03-14T07:20:14.727Z,0.70
2023-03-14T07:22:41.212Z,0.60
2023-03-14T07:25:10.139Z,0.70
2023-03-14T07:27:36.865Z,0.40
2023-03-14T07:30:05.373Z,0.60
2023-03-14T07:32:31.838Z,0.53
2023-03-14T07:34:58.345Z,0.60
2023-03-14T07:37:24.807Z,0.50
2023-03-14T07:39:51.177Z,0.50
2023-03-14T07:42:21.594Z,0.70
2023-03-14T07:44:59.117Z,0.70
2023-03-14T07:47:26.429Z,0.50
2023-03-14T07:49:52.779Z,0.70
2023-03-14T07:52:19.199Z,0.67
2023-03-14T07:54:45.642Z,0.70
2023-03-14T07:57:12.003Z,0.60
2023-03-14T07:59:38.428Z,0.60
2023-03-14T08:02:11.038Z,0.60
2023-03-14T08:04:38.438Z,0.60
2023-03-14T08:07:04.922Z,0.40
2023-03-14T08:09:31.324Z,0.40
2023-03-14T08:11:58.833Z,0.40
2023-03-14T08:14:25.393Z,0.50
2023-03-14T08:16:52.099Z,0.93
2023-03-14T08:19:18.587Z,0.63
2023-03-14T08:21:45.938Z,1.90
2023-03-14T08:24:12.377Z,0.70
2023-03-14T08:26:38.822Z,0.40
2023-03-14T08:29:05.473Z,0.70
2023-03-14T08:31:31.925Z,0.60
2023-03-14T08:33:59.001Z,0.60
2023-03-14T08:36:25.797Z,0.60
2023-03-14T08:38:52.909Z,1.40
2023-03-14T08:41:19.356Z,0.50
2023-03-14T08:43:45.912Z,0.80
2023-03-14T08:46:12.350Z,0.43
2023-03-14T08:48:38.781Z,0.70
2023-03-14T08:51:06.564Z,1.60
2023-03-14T08:53:33.053Z,1.53
2023-03-14T08:56:00.142Z,2.13
2023-03-14T08:58:26.510Z,0.77
2023-03-14T09:00:53.005Z,1.23
2023-03-14T09:03:19.550Z,0.83
2023-03-14T09:05:46.190Z,3.77
2023-03-14T09:08:12.607Z,0.50
2023-03-14T09:10:39.075Z,2.47
2023-03-14T09:13:06.217Z,0.70
2023-03-14T09:15:32.776Z,0.70
2023-03-14T09:17:59.585Z,0.40
2023-03-14T09:20:26.062Z,0.43
2023-03-14T09:22:52.470Z,0.60
2023-03-14T09:25:18.849Z,0.50
2023-03-14T09:27:45.214Z,0.60
2023-03-14T09:30:13.117Z,0.70
2023-03-14T09:32:39.548Z,1.37
2023-03-14T09:35:06.216Z,1.23
2023-03-14T09:37:32.585Z,1.20
2023-03-14T09:39:59.034Z,2.20
2023-03-14T09:42:28.192Z,2.10
2023-03-14T09:44:57.235Z,0.50
2023-03-14T09:47:25.634Z,2.13
2023-03-14T09:49:52.477Z,3.87
2023-03-14T09:52:22.970Z,0.70
2023-03-14T09:54:51.729Z,1.03
2023-03-14T09:57:20.955Z,0.73
2023-03-14T09:59:49.587Z,1.00
2023-03-14T10:02:19.028Z,0.93
2023-03-14T10:04:47.641Z,0.50
2023-03-14T10:07:15.952Z,0.93
2023-03-14T10:09:44.413Z,0.87
2023-03-14T10:12:11.009Z,0.40
2023-03-14T10:14:44.908Z,0.50
2023-03-14T10:17:13.385Z,0.50
2023-03-14T10:19:52.319Z,2.63
2023-03-14T10:22:20.626Z,0.60
2023-03-14T10:24:52.894Z,0.53
2023-03-14T10:27:21.292Z,1.53
2023-03-14T10:29:54.214Z,0.90
2023-03-14T10:32:22.473Z,0.47
2023-03-14T10:35:07.250Z,0.77
2023-03-14T10:37:33.926Z,1.33
2023-03-14T10:40:05.947Z,0.63
2023-03-14T10:42:35.130Z,0.43
2023-03-14T10:45:04.409Z,0.70
2023-03-14T10:47:32.581Z,2.43
2023-03-14T10:50:23.759Z,0.50
2023-03-14T10:53:02.040Z,0.90
2023-03-14T10:55:28.721Z,0.60
2023-03-14T10:57:55.704Z,0.50
2023-03-14T11:00:23.534Z,0.60
2023-03-14T11:03:07.763Z,0.50
2023-03-14T11:05:43.547Z,1.43
2023-03-14T11:08:15.923Z,0.70
2023-03-14T11:10:46.372Z,0.60
2023-03-14T11:13:17.628Z,2.57
2023-03-14T11:15:54.476Z,1.03
2023-03-14T11:18:38.657Z,0.50
2023-03-14T11:21:12.916Z,0.70
2023-03-14T11:23:46.511Z,0.40
2023-03-14T11:26:26.078Z,0.63
2023-03-14T11:28:58.662Z,0.40
2023-03-14T11:31:27.897Z,0.70
2023-03-14T11:34:01.822Z,0.50
2023-03-14T11:36:34.172Z,0.47
2023-03-14T11:39:00.921Z,0.40
2023-03-14T11:41:33.346Z,0.50
2023-03-14T11:44:04.374Z,0.57
2023-03-14T11:46:35.281Z,0.87
2023-03-14T11:49:07.713Z,0.60
2023-03-14T11:51:38.879Z,0.87
2023-03-14T11:54:15.003Z,0.67
2023-03-14T11:56:50.188Z,0.50
2023-03-14T11:59:20.519Z,0.63
2023-03-14T12:01:54.153Z,0.57
2023-03-14T12:04:40.095Z,0.50
2023-03-14T12:07:17.418Z,0.40
2023-03-14T12:09:44.325Z,0.50
2023-03-14T12:12:15.004Z,0.70
2023-03-14T12:14:47.603Z,0.30
2023-03-14T12:17:21.712Z,0.40
2023-03-14T12:19:59.390Z,0.33
2023-03-14T12:22:29.506Z,0.57
2023-03-14T12:25:15.293Z,0.60
2023-03-14T12:27:47.439Z,0.73
2023-03-14T12:30:27.551Z,0.40
2023-03-14T12:33:27.570Z,0.50
2023-03-14T12:35:59.615Z,0.40
2023-03-14T12:38:38.552Z,0.30
2023-03-14T12:41:13.817Z,0.40
2023-03-14T12:43:40.462Z,0.73
2023-03-14T12:46:21.350Z,0.73
2023-03-14T12:48:50.073Z,1.33
2023-03-14T12:51:17.792Z,0.40
2023-03-14T12:54:18.321Z,0.30
2023-03-14T12:57:23.611Z,0.57
2023-03-14T12:59:53.267Z,0.30
2023-03-14T13:02:25.420Z,0.87
2023-03-14T13:05:01.166Z,0.30
2023-03-14T13:08:05.253Z,0.50
2023-03-14T13:10:43.733Z,0.47
2023-03-14T13:13:19.212Z,0.50
2023-03-14T13:15:47.434Z,1.17
2023-03-14T13:18:18.382Z,0.47
2023-03-14T13:20:53.125Z,0.53
2023-03-14T13:23:25.844Z,0.40
2023-03-14T13:25:52.662Z,0.40
2023-03-14T13:28:19.745Z,0.50
2023-03-14T13:30:48.016Z,1.53
2023-03-14T13:33:17.036Z,1.90
2023-03-14T13:35:45.480Z,0.40
2023-03-14T13:38:18.905Z,0.47
2023-03-14T13:40:47.929Z,0.40
2023-03-14T13:43:20.565Z,0.40
2023-03-14T13:45:51.178Z,0.50
2023-03-14T13:48:18.214Z,0.53
2023-03-14T13:50:52.542Z,0.50
2023-03-14T13:53:18.956Z,0.43
2023-03-14T13:55:46.032Z,0.57
2023-03-14T13:58:21.002Z,0.60
2023-03-14T14:01:02.746Z,0.60
2023-03-14T14:03:32.944Z,0.50
2023-03-14T14:05:59.567Z,0.50
2023-03-14T14:08:27.188Z,0.40
2023-03-14T14:10:59.130Z,0.60
2023-03-14T14:13:27.606Z,0.60
2023-03-14T14:15:55.620Z,0.60
2023-03-14T14:18:28.180Z,0.60
2023-03-14T14:20:55.388Z,0.63
2023-03-14T14:23:25.926Z,0.60
2023-03-14T14:25:53.122Z,0.80
2023-03-14T14:28:27.136Z,0.70
2023-03-14T14:31:02.001Z,0.60
2023-03-14T14:33:28.449Z,0.60
2023-03-14T14:36:00.361Z,0.50
2023-03-14T14:38:27.370Z,0.60
2023-03-14T14:40:56.887Z,0.60
2023-03-14T14:43:27.219Z,0.70
2023-03-14T14:45:57.643Z,0.57
2023-03-14T14:48:28.367Z,0.70
2023-03-14T14:51:01.249Z,0.50
2023-03-14T14:53:31.051Z,0.80
2023-03-14T14:55:59.648Z,1.00
2023-03-14T14:58:29.624Z,0.90
2023-03-14T15:00:59.609Z,0.93
2023-03-14T15:03:29.551Z,0.70
2023-03-14T15:05:56.037Z,0.70
2023-03-14T15:08:22.471Z,0.70
2023-03-14T15:10:49.023Z,0.60
2023-03-14T15:13:15.540Z,0.60
2023-03-14T15:15:43.637Z,0.60
2023-03-14T15:18:14.883Z,0.60
2023-03-14T15:20:41.379Z,0.50
2023-03-14T15:23:11.375Z,0.63
2023-03-14T15:25:56.185Z,0.60
2023-03-14T15:28:26.125Z,0.87
2023-03-14T15:30:54.769Z,0.70
2023-03-14T15:33:22.016Z,0.87
2023-03-14T15:35:49.880Z,0.90
2023-03-14T15:38:21.279Z,2.23
2023-03-14T15:40:47.889Z,1.00
2023-03-14T15:43:14.487Z,1.10
2023-03-14T15:45:41.672Z,0.90
2023-03-14T15:48:15.560Z,1.83
2023-03-14T15:50:42.267Z,1.10
2023-03-14T15:53:08.771Z,1.70
2023-03-14T15:55:35.296Z,1.10
2023-03-14T15:58:02.725Z,1.03
2023-03-14T16:00:29.920Z,1.40
2023-03-14T16:02:56.530Z,1.23
2023-03-14T16:05:23.628Z,1.50
2023-03-14T16:07:50.047Z,1.10
2023-03-14T16:10:16.806Z,4.30
2023-03-14T16:12:43.215Z,1.90
2023-03-14T16:15:10.824Z,1.37
2023-03-14T16:17:40.260Z,1.33
2023-03-14T16:20:08.677Z,1.40
2023-03-14T16:22:36.134Z,1.10
2023-03-14T16:25:03.345Z,1.30
2023-03-14T16:27:30.871Z,1.47
2023-03-14T16:29:57.864Z,1.27
2023-03-14T16:32:24.544Z,1.13
2023-03-14T16:34:51.201Z,1.33
2023-03-14T16:37:17.863Z,1.13
2023-03-14T16:40:10.582Z,2.60
2023-03-14T16:42:31.413Z,2.10
2023-03-14T16:44:57.896Z,1.43
2023-03-14T16:47:24.402Z,1.30
2023-03-14T16:49:50.837Z,1.47
2023-03-14T16:52:17.275Z,1.17
2023-03-14T16:54:43.675Z,1.40
2023-03-14T16:57:10.702Z,1.60
2023-03-14T16:59:37.088Z,1.87
2023-03-14T17:02:03.733Z,1.90
2023-03-14T17:04:30.444Z,1.47
2023-03-14T17:06:57.491Z,1.47
2023-03-14T17:09:23.954Z,2.57
2023-03-14T17:11:50.397Z,1.57
2023-03-14T17:14:17.646Z,1.23
2023-03-14T17:16:44.934Z,1.20
2023-03-14T17:19:11.395Z,2.10
2023-03-14T17:21:37.841Z,1.33
2023-03-14T17:24:04.478Z,1.77
2023-03-14T17:26:32.637Z,1.37
2023-03-14T17:28:59.150Z,1.90
2023-03-14T17:31:26.294Z,2.23
2023-03-14T17:33:54.220Z,2.43
2023-03-14T17:36:23.007Z,1.10
2023-03-14T17:38:49.420Z,2.03
2023-03-14T17:41:16.112Z,1.30
2023-03-14T17:43:42.748Z,1.43
2023-03-14T17:46:13.891Z,2.23
2023-03-14T17:48:41.290Z,2.73
2023-03-14T17:51:08.023Z,2.37
2023-03-14T17:53:35.217Z,3.40
2023-03-14T17:56:02.403Z,2.10
2023-03-14T17:58:30.029Z,2.97
2023-03-14T18:00:56.446Z,1.80
2023-03-14T18:03:23.037Z,3.40
2023-03-14T18:05:50.154Z,3.43
2023-03-14T18:08:16.548Z,2.00
2023-03-14T18:10:43.116Z,2.43
2023-03-14T18:13:09.678Z,3.13
2023-03-14T18:15:36.076Z,2.17
2023-03-14T18:18:02.535Z,2.30
2023-03-14T18:20:29.269Z,2.03
2023-03-14T18:22:56.471Z,3.17
2023-03-14T18:25:26.188Z,2.17
2023-03-14T18:27:52.629Z,2.73
2023-03-14T18:30:19.715Z,2.00
2023-03-14T18:32:46.280Z,2.80
2023-03-14T18:35:15.462Z,2.53
2023-03-14T18:37:42.049Z,2.57
2023-03-14T18:40:13.181Z,3.33
2023-03-14T18:42:40.575Z,2.83
2023-03-14T18:45:07.840Z,2.47
2023-03-14T18:47:36.015Z,3.37
2023-03-14T18:50:03.277Z,2.40
2023-03-14T18:52:30.428Z,4.40
2023-03-14T18:54:57.274Z,3.20
2023-03-14T18:57:24.456Z,1.93
2023-03-14T18:59:52.141Z,2.80
2023-03-14T19:02:18.719Z,1.73
2023-03-14T19:04:45.241Z,4.17
2023-03-14T19:07:13.306Z,2.27
2023-03-14T19:09:41.760Z,1.60
2023-03-14T19:12:09.145Z,2.07
2023-03-14T19:14:37.749Z,1.90
2023-03-14T19:17:04.268Z,3.13
2023-03-14T19:19:31.271Z,1.70
2023-03-14T19:21:57.866Z,3.30
2023-03-14T19:24:24.252Z,2.07
2023-03-14T19:26:51.273Z,3.50
2023-03-14T19:29:17.753Z,2.13
2023-03-14T19:31:45.009Z,2.93
2023-03-14T19:34:11.451Z,4.03
2023-03-14T19:36:38.148Z,3.00
2023-03-14T19:39:05.996Z,3.70
2023-03-14T19:41:33.504Z,2.27
2023-03-14T19:44:00.651Z,1.80
2023-03-14T19:46:27.307Z,2.30
2023-03-14T19:48:54.470Z,2.30
2023-03-14T19:51:21.729Z,2.13
2023-03-14T19:53:48.697Z,2.60
2023-03-14T19:56:15.125Z,2.37
2023-03-14T19:58:41.643Z,1.90
2023-03-14T20:01:08.528Z,2.00
2023-03-14T20:03:35.611Z,2.30
2023-03-14T20:06:05.136Z,2.67
2023-03-14T20:08:31.743Z,2.83
2023-03-14T20:10:58.350Z,2.97
2023-03-14T20:13:26.008Z,2.77
2023-03-14T20:15:52.569Z,3.37
2023-03-14T20:18:19.077Z,4.53
2023-03-14T20:20:45.490Z,1.93
2023-03-14T20:23:13.718Z,2.73
2023-03-14T20:25:40.400Z,4.03
2023-03-14T20:28:07.474Z,2.77
2023-03-14T20:30:34.369Z,2.00
2023-03-14T20:33:03.608Z,2.70
2023-03-14T20:35:30.502Z,1.97
2023-03-14T20:37:56.978Z,2.97
2023-03-14T20:40:27.832Z,2.43
2023-03-14T20:43:01.725Z,2.23
2023-03-14T20:45:28.171Z,4.77
2023-03-14T20:47:54.569Z,2.37
2023-03-14T20:50:22.808Z,3.30
2023-03-14T20:52:49.295Z,2.73
2023-03-14T20:55:15.883Z,3.83
2023-03-14T20:57:43.103Z,3.47
2023-03-14T21:00:10.914Z,4.17
2023-03-14T21:02:37.374Z,5.47
2023-03-14T21:05:04.822Z,3.33
2023-03-14T21:07:32.909Z,3.80
2023-03-14T21:09:59.591Z,4.10
2023-03-14T21:12:29.644Z,4.33
2023-03-14T21:14:58.372Z,3.63
2023-03-14T21:17:24.824Z,3.43
2023-03-14T21:19:57.403Z,4.40
2023-03-14T21:22:25.613Z,2.60
2023-03-14T21:24:52.302Z,1.87
2023-03-14T21:27:19.019Z,3.30
2023-03-14T21:29:45.489Z,3.77
2023-03-14T21:32:15.792Z,2.10
2023-03-14T21:34:42.271Z,3.50
2023-03-14T21:37:08.722Z,3.37
2023-03-14T21:39:35.218Z,2.27
2023-03-14T21:42:01.899Z,2.27
2023-03-14T21:44:28.376Z,2.37
2023-03-14T21:46:54.843Z,2.40
2023-03-14T21:49:24.910Z,2.40
2023-03-14T21:51:51.567Z,3.47
2023-03-14T21:54:20.285Z,2.20
2023-03-14T21:56:46.731Z,3.10
2023-03-14T21:59:14.056Z,2.77
2023-03-14T22:01:41.538Z,2.43
2023-03-14T22:04:08.055Z,2.90
2023-03-14T22:06:35.109Z,2.30
2023-03-14T22:09:01.780Z,3.77
2023-03-14T22:11:28.636Z,2.27
2023-03-14T22:13:55.023Z,2.10
2023-03-14T22:16:21.538Z,5.33
2023-03-14T22:18:47.944Z,2.37
2023-03-14T22:21:14.316Z,2.50
2023-03-14T22:23:41.381Z,2.23
2023-03-14T22:26:07.817Z,2.50
2023-03-14T22:28:34.217Z,4.10
2023-03-14T22:31:03.256Z,2.97
2023-03-14T22:33:30.518Z,2.67
2023-03-14T22:35:56.937Z,2.63
2023-03-14T22:38:23.496Z,3.83
2023-03-14T22:40:50.569Z,2.33
2023-03-14T22:43:16.975Z,2.70
2023-03-14T22:45:43.560Z,2.13
2023-03-14T22:48:10.052Z,2.67
2023-03-14T22:50:38.230Z,3.60
2023-03-14T22:53:04.671Z,5.13
2023-03-14T22:55:31.091Z,2.43
2023-03-14T22:57:58.366Z,2.83
2023-03-14T23:00:29.584Z,1.80
2023-03-14T23:02:56.020Z,3.70
2023-03-14T23:05:22.766Z,2.03
2023-03-14T23:07:49.244Z,2.47
2023-03-14T23:10:16.344Z,3.37
2023-03-14T23:12:44.483Z,2.90
2023-03-14T23:15:14.776Z,1.77
2023-03-14T23:17:42.136Z,2.10
2023-03-14T23:20:09.858Z,1.83
2023-03-14T23:22:36.383Z,2.30
2023-03-14T23:25:03.664Z,1.83
2023-03-14T23:27:30.270Z,4.57
2023-03-14T23:29:57.286Z,4.80
2023-03-14T23:32:24.440Z,2.00
2023-03-14T23:34:51.258Z,1.87
2023-03-14T23:37:18.104Z,1.37
2023-03-14T23:39:45.280Z,1.70
2023-03-14T23:42:12.871Z,2.00
2023-03-14T23:44:41.812Z,3.73
2023-03-14T23:47:09.170Z,3.47
2023-03-14T23:49:36.475Z,2.37
2023-03-14T23:52:03.203Z,2.83
2023-03-14T23:54:29.626Z,2.70
2023-03-14T23:56:56.108Z,2.10
2023-03-14T23:59:22.584Z,3.20
